createdAt,value
2018-07-05T00:02:55.810Z,24.53
2018-07-05T00:07:56.234Z,24.53
2018-07-05T00:12:56.906Z,24.51
2018-07-05T00:17:57.372Z,24.57
2018-07-05T00:23:01.389Z,24.58
2018-07-05T00:28:01.622Z,24.33
2018-07-05T00:33:05.743Z,24.52
2018-07-05T00:38:06.219Z,24.55
2018-07-05T00:43:07.562Z,24.55
2018-07-05T00:48:07.847Z,24.10
2018-07-05T00:53:11.851Z,24.38
2018-07-05T00:58:12.309Z,24.37
2018-07-05T01:03:12.761Z,24.15
2018-07-05T01:08:13.050Z,23.80
2018-07-05T01:13:13.507Z,24.21
2018-07-05T01:18:13.743Z,24.01
2018-07-05T01:23:15.306Z,24.16
2018-07-05T01:28:15.746Z,24.08
2018-07-05T01:33:16.221Z,24.25
2018-07-05T01:38:16.838Z,24.12
2018-07-05T01:43:18.564Z,24.00
2018-07-05T01:48:19.074Z,23.90
2018-07-05T01:53:19.555Z,23.98
2018-07-05T01:58:19.941Z,23.94
2018-07-05T02:03:20.274Z,23.69
2018-07-05T02:08:20.516Z,23.77
2018-07-05T02:13:25.139Z,23.71
2018-07-05T02:18:25.549Z,23.65
2018-07-05T02:23:29.797Z,23.77
2018-07-05T02:28:30.036Z,23.61
2018-07-05T02:33:34.128Z,23.62
2018-07-05T02:38:34.351Z,23.42
2018-07-05T02:43:35.748Z,23.37
2018-07-05T02:48:36.090Z,23.57
2018-07-05T02:53:39.854Z,23.40
2018-07-05T02:58:40.133Z,23.48
2018-07-05T03:03:44.258Z,23.69
2018-07-05T03:08:44.541Z,23.66
2018-07-05T03:13:50.604Z,23.63
2018-07-05T03:18:50.864Z,23.66
2018-07-05T03:23:55.277Z,23.63
2018-07-05T03:28:55.771Z,23.78
2018-07-05T03:33:57.552Z,23.89
2018-07-05T03:38:57.895Z,23.89
2018-07-05T03:44:01.476Z,23.97
2018-07-05T03:49:01.676Z,23.99
2018-07-05T03:54:02.976Z,23.98
2018-07-05T03:59:03.927Z,23.96
2018-07-05T04:04:05.335Z,24.02
2018-07-05T04:09:05.876Z,24.08
2018-07-05T04:14:06.527Z,24.06
2018-07-05T04:19:07.001Z,24.07
2018-07-05T04:24:11.243Z,24.04
2018-07-05T04:29:11.500Z,23.94
2018-07-05T04:34:14.955Z,23.99
2018-07-05T04:39:15.206Z,24.07
2018-07-05T04:44:18.748Z,24.06
2018-07-05T04:49:18.947Z,23.87
2018-07-05T04:54:22.970Z,24.05
2018-07-05T04:59:23.259Z,24.05
2018-07-05T05:04:23.896Z,24.09
2018-07-05T05:09:24.132Z,24.04
2018-07-05T05:14:24.499Z,24.08
2018-07-05T05:19:24.861Z,24.01
2018-07-05T05:24:25.385Z,24.04
2018-07-05T05:29:25.793Z,24.07
2018-07-05T05:34:27.246Z,24.14
2018-07-05T05:39:27.790Z,24.13
2018-07-05T05:44:29.034Z,24.10
2018-07-05T05:49:29.368Z,24.08
2018-07-05T05:54:30.642Z,24.13
2018-07-05T05:59:31.111Z,24.13
2018-07-05T06:04:32.815Z,24.22
2018-07-05T06:09:33.117Z,24.24
2018-07-05T06:14:33.604Z,24.21
2018-07-05T06:19:34.077Z,24.21
2018-07-05T06:24:35.488Z,24.23
2018-07-05T06:29:35.953Z,24.31
2018-07-05T06:34:37.477Z,24.31
2018-07-05T06:39:37.877Z,24.50
2018-07-05T06:44:41.754Z,24.67
2018-07-05T06:49:41.970Z,24.56
2018-07-05T06:54:46.424Z,24.56
2018-07-05T06:59:46.745Z,24.44
2018-07-05T07:04:50.338Z,24.49
2018-07-05T07:09:50.627Z,24.89
2018-07-05T07:14:52.167Z,24.70
2018-07-05T07:19:52.495Z,24.69
2018-07-05T07:24:53.050Z,25.13
2018-07-05T07:29:53.275Z,24.88
2018-07-05T07:34:57.242Z,24.81
2018-07-05T07:39:57.608Z,25.07
2018-07-05T07:44:48.984Z,24.87
2018-07-05T07:49:30.890Z,24.74
2018-07-05T07:54:13.358Z,24.79
2018-07-05T07:58:55.183Z,24.74
2018-07-05T08:03:41.577Z,24.82
2018-07-05T08:08:23.440Z,24.83
2018-07-05T08:13:06.583Z,24.88
2018-07-05T08:17:48.383Z,24.94
2018-07-05T08:22:31.321Z,25.10
2018-07-05T08:27:13.226Z,25.14
2018-07-05T08:31:58.205Z,25.25
2018-07-05T08:36:40.081Z,25.46
2018-07-05T08:41:23.080Z,26.00
2018-07-05T08:46:04.989Z,25.81
2018-07-05T08:50:47.806Z,26.04
2018-07-05T08:55:29.709Z,25.69
2018-07-05T09:00:12.786Z,25.51
2018-07-05T09:04:54.614Z,25.29
2018-07-05T09:09:36.524Z,25.48
2018-07-05T09:14:18.365Z,25.20
2018-07-05T09:19:00.177Z,25.07
2018-07-05T09:23:42.141Z,25.09
2018-07-05T09:28:23.912Z,25.04
2018-07-05T09:33:09.183Z,24.93
2018-07-05T09:37:50.978Z,24.91
2018-07-05T09:42:36.495Z,24.91
2018-07-05T09:47:18.319Z,24.66
2018-07-05T09:52:03.764Z,24.79
2018-07-05T09:56:45.537Z,24.63
2018-07-05T10:01:28.334Z,24.74
2018-07-05T10:06:10.209Z,24.79
2018-07-05T10:10:53.259Z,24.92
2018-07-05T10:15:35.174Z,25.14
2018-07-05T10:20:20.534Z,25.30
2018-07-05T10:25:02.389Z,25.35
2018-07-05T10:29:56.618Z,25.51
2018-07-05T10:34:44.987Z,25.42
2018-07-05T10:39:26.917Z,25.44
2018-07-05T10:44:24.519Z,25.48
2018-07-05T10:49:24.856Z,25.41
2018-07-05T10:54:25.320Z,25.48
2018-07-05T10:59:26.422Z,25.45
2018-07-05T11:04:27.746Z,25.38
2018-07-05T11:09:27.994Z,25.22
2018-07-05T11:14:28.400Z,25.06
2018-07-05T11:19:28.589Z,25.09
2018-07-05T11:24:32.818Z,25.21
2018-07-05T11:29:33.173Z,25.28
2018-07-05T11:34:33.462Z,25.38
2018-07-05T11:39:34.052Z,25.43
2018-07-05T11:44:34.573Z,25.60
2018-07-05T11:49:34.855Z,25.87
2018-07-05T11:54:35.163Z,25.80
2018-07-05T11:59:35.367Z,25.65
2018-07-05T12:04:35.656Z,25.63
2018-07-05T12:09:36.031Z,25.56
2018-07-05T12:14:36.560Z,25.60
2018-07-05T12:19:38.041Z,25.63
2018-07-05T12:24:38.554Z,25.61
2018-07-05T12:29:38.805Z,25.60
2018-07-05T12:34:39.331Z,25.62
2018-07-05T12:39:39.661Z,25.58
2018-07-05T12:44:40.867Z,25.57
2018-07-05T12:49:41.127Z,25.57
2018-07-05T12:54:41.447Z,25.57
2018-07-05T12:59:42.087Z,25.58
2018-07-05T13:04:42.399Z,25.59
2018-07-05T13:09:46.838Z,25.65
2018-07-05T13:14:47.112Z,25.69
2018-07-05T13:19:48.698Z,25.69
2018-07-05T13:24:49.217Z,25.79
2018-07-05T13:29:53.367Z,25.68
2018-07-05T13:34:53.967Z,25.72
2018-07-05T13:39:55.810Z,25.70
2018-07-05T13:44:56.109Z,25.64
2018-07-05T13:50:00.341Z,25.64
2018-07-05T13:55:00.697Z,25.75
2018-07-05T14:00:01.242Z,25.80
2018-07-05T14:05:01.584Z,25.55
2018-07-05T14:10:03.134Z,25.58
2018-07-05T14:15:03.597Z,25.60
2018-07-05T14:20:07.368Z,25.56
2018-07-05T14:25:07.720Z,25.64
2018-07-05T14:30:12.670Z,25.56
2018-07-05T14:35:12.954Z,25.47
2018-07-05T14:40:14.590Z,25.53
2018-07-05T14:45:14.877Z,25.44
2018-07-05T14:50:26.686Z,25.43
2018-07-05T14:55:27.149Z,25.30
2018-07-05T15:00:31.435Z,25.58
2018-07-05T15:05:31.805Z,25.33
2018-07-05T15:10:35.690Z,25.21
2018-07-05T15:15:36.009Z,25.16
2018-07-05T15:20:37.658Z,25.15
2018-07-05T15:25:38.098Z,25.07
2018-07-05T15:30:39.667Z,25.07
2018-07-05T15:35:39.951Z,25.19
2018-07-05T15:40:41.246Z,24.92
2018-07-05T15:45:41.527Z,24.89
2018-07-05T15:50:42.961Z,25.23
2018-07-05T15:55:43.229Z,25.24
2018-07-05T16:00:43.771Z,25.11
2018-07-05T16:05:44.076Z,25.25
2018-07-05T16:10:45.540Z,25.12
2018-07-05T16:15:45.849Z,25.10
2018-07-05T16:20:50.223Z,25.22
2018-07-05T16:25:50.767Z,25.15
2018-07-05T16:30:54.963Z,24.92
2018-07-05T16:35:55.450Z,24.87
2018-07-05T16:40:56.969Z,24.96
2018-07-05T16:45:57.560Z,24.85
2018-07-05T16:50:59.413Z,25.00
2018-07-05T16:56:01.062Z,25.17
2018-07-05T17:01:02.514Z,24.81
2018-07-05T17:06:02.709Z,24.99
2018-07-05T17:11:07.564Z,25.20
2018-07-05T17:16:08.008Z,25.14
2018-07-05T17:21:13.504Z,25.07
2018-07-05T17:26:14.896Z,25.16
2018-07-05T17:31:16.317Z,25.14
2018-07-05T17:36:16.706Z,25.18
2018-07-05T17:41:20.500Z,25.17
2018-07-05T17:46:22.557Z,25.22
2018-07-05T17:51:24.438Z,25.07
2018-07-05T17:56:24.942Z,25.08
2018-07-05T18:01:25.479Z,25.09
2018-07-05T18:06:26.286Z,25.06
2018-07-05T18:11:30.458Z,25.04
2018-07-05T18:16:30.746Z,25.01
2018-07-05T18:21:34.917Z,24.98
2018-07-05T18:26:35.090Z,24.92
2018-07-05T18:31:38.870Z,24.47
2018-07-05T18:36:39.341Z,24.81
2018-07-05T18:41:43.530Z,24.80
2018-07-05T18:46:44.420Z,24.85
2018-07-05T18:51:49.032Z,24.49
2018-07-05T18:56:49.246Z,24.37
2018-07-05T19:01:50.072Z,24.43
2018-07-05T19:06:50.343Z,24.47
2018-07-05T19:11:54.160Z,24.58
2018-07-05T19:16:54.679Z,24.60
2018-07-05T19:21:58.417Z,24.17
2018-07-05T19:26:58.878Z,24.37
2018-07-05T19:32:02.825Z,24.46
2018-07-05T19:37:02.896Z,24.04
2018-07-05T19:42:04.914Z,24.13
2018-07-05T19:47:05.396Z,23.98
2018-07-05T19:52:06.746Z,24.16
2018-07-05T19:57:07.196Z,24.12
2018-07-05T20:02:11.018Z,24.16
2018-07-05T20:07:11.304Z,24.27
2018-07-05T20:12:12.535Z,24.25
2018-07-05T20:17:12.862Z,24.09
2018-07-05T20:22:18.136Z,23.88
2018-07-05T20:27:18.389Z,24.11
2018-07-05T20:32:19.893Z,24.18
2018-07-05T20:37:20.120Z,24.13
2018-07-05T20:42:23.641Z,23.97
2018-07-05T20:47:23.958Z,23.81
2018-07-05T20:52:27.626Z,23.79
2018-07-05T20:57:27.982Z,23.76
2018-07-05T21:02:31.700Z,23.84
2018-07-05T21:07:32.150Z,24.02
2018-07-05T21:12:32.314Z,23.70
2018-07-05T21:17:32.931Z,23.70
2018-07-05T21:22:34.366Z,23.76
2018-07-05T21:27:34.740Z,23.39
2018-07-05T21:32:36.181Z,23.75
2018-07-05T21:37:36.467Z,23.81
2018-07-05T21:42:37.702Z,23.69
2018-07-05T21:47:38.083Z,23.66
2018-07-05T21:52:39.426Z,23.74
2018-07-05T21:57:39.676Z,23.74
2018-07-05T22:02:41.005Z,23.56
2018-07-05T22:07:41.792Z,23.73
2018-07-05T22:12:43.392Z,23.62
2018-07-05T22:17:49.301Z,23.66
2018-07-05T22:22:58.796Z,23.60
2018-07-05T22:28:04.564Z,23.19
2018-07-05T22:33:04.949Z,23.05
2018-07-05T22:38:05.278Z,23.10
2018-07-05T22:43:05.588Z,22.93
2018-07-05T22:48:05.744Z,22.81
2018-07-05T22:53:05.894Z,22.84
2018-07-05T22:58:06.234Z,22.88
2018-07-05T23:03:06.541Z,22.71
2018-07-05T23:08:07.080Z,22.98
2018-07-05T23:13:07.290Z,23.02
2018-07-05T23:18:07.619Z,23.10
2018-07-05T23:23:07.849Z,23.18
2018-07-05T23:28:08.080Z,23.19
2018-07-05T23:33:08.361Z,23.27
2018-07-05T23:38:10.076Z,23.15
2018-07-05T23:43:10.414Z,23.22
2018-07-05T23:48:11.710Z,23.09
2018-07-05T23:53:11.940Z,23.19
2018-07-05T23:58:12.452Z,23.18
